ULPB

Details ICAO ULPB (PES)
Name BESOVETS
Region Russia
Timezone Europe/Moscow (UTC+3.0)
Plans Departing 19
Arriving 30
Stats Elevation 151 ft / 46 m (AMSL)
Location 61.885161° 34.154744°
Runways 1
Magnetic Variation 13.004° E
Sunrise 2017-12-18 07:04:51 UTC / 2017-12-18 10:04:51 Local
Sunset 2017-12-18 12:17:45 UTC / 2017-12-18 15:17:45 Local
Advertisement - Login to hide

Runways

ID Width Length Bearing (true) Bearing (mag) Surface Threshold Offset Overrun Length
02 157 ft / 48 m 8,192 ft / 2,497 m 23.19° 10.19° Concrete 0 ft / 0 m 0 ft / 0 m
20 157 ft / 48 m 8,192 ft / 2,497 m 203.21° 190.21° Concrete 0 ft / 0 m 0 ft / 0 m

Map

Weather


0- 5 10 15 20 25 30 35+ Temperature / ° C

Clouds and Precipitation
Forecast for 2017-12-18 18:00 UTC. Updated 2 hours ago

Ground ~20,000 ft ~40,000 ft Winds

METAR

ULPB 181700Z AUTO 21003MPS 190V350 9999 // ///012/// M00/M02 Q1021 RMK QFE762/1016

TAF

Not found

Frequencies

Tower 128.00 MHz PETROZAVODSK TWR
Warning: Do not use this data for real-world aviation or navigation. No guarantee of current accuracy is given.